createdAt,value
2023-04-17T00:02:45.097Z,96.01
2023-04-17T00:06:47.964Z,98.03
2023-04-17T00:11:00.655Z,97.01
2023-04-17T00:15:10.747Z,95.15
2023-04-17T00:19:13.635Z,93.23
2023-04-17T00:23:16.563Z,93.78
2023-04-17T00:27:20.754Z,96.06
2023-04-17T00:31:25.017Z,94.23
2023-04-17T00:35:27.708Z,96.04
2023-04-17T00:39:30.894Z,97.57
2023-04-17T00:43:34.940Z,95.89
2023-04-17T00:47:37.827Z,94.24
2023-04-17T00:51:40.805Z,95.26
2023-04-17T00:55:44.421Z,94.32
2023-04-17T00:59:49.078Z,95.06
2023-04-17T01:03:52.225Z,95.55
2023-04-17T01:07:55.333Z,95.59
2023-04-17T01:12:19.736Z,95.34
2023-04-17T01:16:24.036Z,96.02
2023-04-17T01:20:31.118Z,94.18
2023-04-17T01:24:35.522Z,96.29
2023-04-17T01:28:38.404Z,94.28
2023-04-17T01:32:41.553Z,93.93
2023-04-17T01:36:44.273Z,94.81
2023-04-17T01:40:49.009Z,94.31
2023-04-17T01:44:51.929Z,96.92
2023-04-17T01:48:55.205Z,96.73
2023-04-17T01:52:58.020Z,96.24
2023-04-17T01:57:02.837Z,98.88
2023-04-17T02:01:06.238Z,96.11
2023-04-17T02:05:09.305Z,98.08
2023-04-17T02:09:12.307Z,98.38
2023-04-17T02:13:16.991Z,98.55
2023-04-17T02:17:19.844Z,98.39
2023-04-17T02:21:22.809Z,98.94
2023-04-17T02:25:25.552Z,98.87
2023-04-17T02:29:29.816Z,99.24
2023-04-17T02:33:32.614Z,99.03
2023-04-17T02:37:35.458Z,98.14
2023-04-17T02:41:38.180Z,98.05
2023-04-17T02:45:42.589Z,98.53
2023-04-17T02:49:45.265Z,97.95
2023-04-17T02:53:49.158Z,96.53
2023-04-17T02:57:51.664Z,97.52
2023-04-17T03:01:59.856Z,95.50
2023-04-17T03:06:02.964Z,95.03
2023-04-17T03:10:06.430Z,96.70
2023-04-17T03:14:09.085Z,95.40
2023-04-17T03:18:13.653Z,96.27
2023-04-17T03:22:16.514Z,96.48
2023-04-17T03:26:19.519Z,96.19
2023-04-17T03:30:22.649Z,96.03
2023-04-17T03:34:28.389Z,96.00
2023-04-17T03:38:31.497Z,96.84
2023-04-17T03:42:34.163Z,97.89
2023-04-17T03:46:37.072Z,98.95
2023-04-17T03:50:41.312Z,98.52
2023-04-17T03:54:44.009Z,97.21
2023-04-17T03:58:47.597Z,97.77
2023-04-17T04:02:50.770Z,98.34
2023-04-17T04:06:57.987Z,98.03
2023-04-17T04:11:01.415Z,97.43
2023-04-17T04:15:04.497Z,97.58
2023-04-17T04:19:07.140Z,96.02
2023-04-17T04:23:11.270Z,96.74
2023-04-17T04:27:18.142Z,96.51
2023-04-17T04:31:21.093Z,97.99
2023-04-17T04:35:25.953Z,97.45
2023-04-17T04:39:30.380Z,98.11
2023-04-17T04:43:34.027Z,97.32
2023-04-17T04:47:37.314Z,98.34
2023-04-17T04:51:40.662Z,97.64
2023-04-17T04:55:44.923Z,98.37
2023-04-17T04:59:47.612Z,97.17
2023-04-17T05:03:50.487Z,94.42
2023-04-17T05:07:53.562Z,94.92
2023-04-17T05:11:57.970Z,96.73
2023-04-17T05:16:01.651Z,95.82
2023-04-17T05:20:06.941Z,97.90
2023-04-17T05:24:09.843Z,98.68
2023-04-17T05:28:16.291Z,98.68
2023-04-17T05:32:19.953Z,96.20
2023-04-17T05:36:23.064Z,97.14
2023-04-17T05:40:25.921Z,98.82
2023-04-17T05:44:29.998Z,97.14
2023-04-17T05:48:32.752Z,96.98
2023-04-17T05:52:36.972Z,98.05
2023-04-17T05:56:41.765Z,98.41
2023-04-17T06:00:46.317Z,98.55
2023-04-17T06:04:49.370Z,97.49
2023-04-17T06:08:54.398Z,95.98
2023-04-17T06:12:57.062Z,94.98
2023-04-17T06:17:01.585Z,93.51
2023-04-17T06:21:04.692Z,93.10
2023-04-17T06:25:08.568Z,94.70
2023-04-17T06:29:12.749Z,94.82
2023-04-17T06:33:17.045Z,94.44
2023-04-17T06:37:19.754Z,92.05
2023-04-17T06:41:22.483Z,90.90
2023-04-17T06:45:25.156Z,90.05
2023-04-17T06:49:29.369Z,89.16
2023-04-17T06:53:32.007Z,89.20
2023-04-17T06:57:34.640Z,88.87
2023-04-17T07:01:38.264Z,88.61
2023-04-17T07:05:42.214Z,88.40
2023-04-17T07:09:45.312Z,87.01
2023-04-17T07:13:48.039Z,87.95
2023-04-17T07:17:50.714Z,85.52
2023-04-17T07:21:54.733Z,86.95
2023-04-17T07:25:57.432Z,84.64
2023-04-17T07:30:00.087Z,82.64
2023-04-17T07:34:02.840Z,82.51
2023-04-17T07:38:06.912Z,83.23
2023-04-17T07:42:11.322Z,80.95
2023-04-17T07:46:14.072Z,83.31
2023-04-17T07:50:16.754Z,81.94
2023-04-17T07:54:20.775Z,81.12
2023-04-17T07:58:24.186Z,80.34
2023-04-17T08:02:27.043Z,80.11
2023-04-17T08:06:29.706Z,79.67
2023-04-17T08:10:34.060Z,77.27
2023-04-17T08:14:36.713Z,78.24
2023-04-17T08:18:39.702Z,77.24
2023-04-17T08:22:42.727Z,74.83
2023-04-17T08:26:47.204Z,78.17
2023-04-17T08:30:49.927Z,74.70
2023-04-17T08:34:52.620Z,76.59
2023-04-17T08:38:55.352Z,76.82
2023-04-17T08:43:00.860Z,76.26
2023-04-17T08:47:04.694Z,75.25
2023-04-17T08:51:07.954Z,75.13
2023-04-17T08:55:11.242Z,78.51
2023-04-17T08:59:15.358Z,74.22
2023-04-17T09:03:18.192Z,73.19
2023-04-17T09:07:29.635Z,72.42
2023-04-17T09:11:32.339Z,72.96
2023-04-17T09:15:37.649Z,74.87
2023-04-17T09:20:06.481Z,73.32
2023-04-17T09:24:10.070Z,75.59
2023-04-17T09:28:14.692Z,71.39
2023-04-17T09:32:19.039Z,73.14
2023-04-17T09:36:22.613Z,74.34
2023-04-17T09:40:26.094Z,75.44
2023-04-17T09:44:30.160Z,70.57
2023-04-17T09:48:34.461Z,72.08
2023-04-17T09:52:37.669Z,75.05
2023-04-17T09:56:41.181Z,74.79
2023-04-17T10:00:44.113Z,74.16
2023-04-17T10:04:48.644Z,76.97
2023-04-17T10:08:51.732Z,72.87
2023-04-17T10:12:57.142Z,74.79
2023-04-17T10:16:59.961Z,73.83
2023-04-17T10:21:22.949Z,74.50
2023-04-17T10:25:26.977Z,74.16
2023-04-17T10:29:53.431Z,73.92
2023-04-17T10:33:56.117Z,76.07
2023-04-17T10:38:07.954Z,72.70
2023-04-17T10:42:19.374Z,73.70
2023-04-17T10:46:27.063Z,74.44
2023-04-17T10:50:30.014Z,72.88
2023-04-17T10:54:35.208Z,73.23
2023-04-17T10:58:57.687Z,72.42
2023-04-17T11:03:01.753Z,71.84
2023-04-17T11:07:04.704Z,71.95
2023-04-17T11:11:12.206Z,70.17
2023-04-17T11:15:15.047Z,68.49
2023-04-17T11:19:20.121Z,69.60
2023-04-17T11:23:22.749Z,70.58
2023-04-17T11:27:26.764Z,66.12
2023-04-17T11:31:30.199Z,63.82
2023-04-17T11:35:34.112Z,68.01
2023-04-17T11:39:36.854Z,63.24
2023-04-17T11:43:40.861Z,64.17
2023-04-17T11:47:43.614Z,65.60
2023-04-17T11:51:46.806Z,65.17
2023-04-17T11:55:49.976Z,66.24
2023-04-17T11:59:54.012Z,66.33
2023-04-17T12:03:57.560Z,65.19
2023-04-17T12:08:02.436Z,61.78
2023-04-17T12:12:06.825Z,61.42
2023-04-17T12:16:10.917Z,60.18
2023-04-17T12:20:14.208Z,60.79
2023-04-17T12:24:18.178Z,61.15
2023-04-17T12:28:22.091Z,64.01
2023-04-17T12:32:26.133Z,64.98
2023-04-17T12:36:28.917Z,64.35
2023-04-17T12:40:32.840Z,63.02
2023-04-17T12:44:35.616Z,66.26
2023-04-17T12:48:39.949Z,65.20
2023-04-17T12:52:42.926Z,64.34
2023-04-17T12:56:45.553Z,64.46
2023-04-17T13:00:48.203Z,60.21
2023-04-17T13:04:53.587Z,62.68
2023-04-17T13:08:56.479Z,64.34
2023-04-17T13:12:59.401Z,62.51
2023-04-17T13:17:02.523Z,63.15
2023-04-17T13:21:07.898Z,67.94
2023-04-17T13:25:11.276Z,70.12
2023-04-17T13:29:15.821Z,68.06
2023-04-17T13:33:20.537Z,68.01
2023-04-17T13:37:25.772Z,63.13
2023-04-17T13:41:28.533Z,62.56
2023-04-17T13:45:31.354Z,60.64
2023-04-17T13:49:34.110Z,58.84
2023-04-17T13:53:38.190Z,60.60
2023-04-17T13:57:40.851Z,58.48
2023-04-17T14:01:43.523Z,62.06
2023-04-17T14:05:46.532Z,64.71
2023-04-17T14:09:50.559Z,65.39
2023-04-17T14:13:53.567Z,66.02
2023-04-17T14:17:56.372Z,66.23
2023-04-17T14:21:59.045Z,67.75
2023-04-17T14:26:03.209Z,67.57
2023-04-17T14:30:07.029Z,62.92
2023-04-17T14:34:09.776Z,66.00
2023-04-17T14:38:12.447Z,69.23
2023-04-17T14:42:16.449Z,68.68
2023-04-17T14:46:19.299Z,66.95
2023-04-17T14:50:22.151Z,68.40
2023-04-17T14:54:24.839Z,68.33
2023-04-17T14:58:29.448Z,67.92
2023-04-17T15:02:38.087Z,65.69
2023-04-17T15:06:40.986Z,69.76
2023-04-17T15:10:50.786Z,66.35
2023-04-17T15:14:56.421Z,68.10
2023-04-17T15:18:59.103Z,65.58
2023-04-17T15:23:01.821Z,67.15
2023-04-17T15:27:04.667Z,67.71
2023-04-17T15:31:08.873Z,64.38
2023-04-17T15:35:11.749Z,64.33
2023-04-17T15:39:14.680Z,66.44
2023-04-17T15:43:17.577Z,64.59
2023-04-17T15:47:21.590Z,65.17
2023-04-17T15:51:24.649Z,69.25
2023-04-17T15:55:27.332Z,67.44
2023-04-17T15:59:30.032Z,65.12
2023-04-17T16:03:34.284Z,65.62
2023-04-17T16:07:37.115Z,66.96
2023-04-17T16:11:39.766Z,62.20
2023-04-17T16:15:42.582Z,65.99
2023-04-17T16:19:48.362Z,66.83
2023-04-17T16:23:52.948Z,63.72
2023-04-17T16:27:55.748Z,63.78
2023-04-17T16:31:59.735Z,64.17
2023-04-17T16:36:04.022Z,61.64
2023-04-17T16:40:07.997Z,66.32
2023-04-17T16:44:11.579Z,64.71
2023-04-17T16:48:14.572Z,64.95
2023-04-17T16:52:18.651Z,65.39
2023-04-17T16:56:21.342Z,65.23
2023-04-17T17:00:24.288Z,62.15
2023-04-17T17:04:27.298Z,62.76
2023-04-17T17:08:31.647Z,65.74
2023-04-17T17:12:34.679Z,68.24
2023-04-17T17:16:37.467Z,68.14
2023-04-17T17:20:40.241Z,64.31
2023-04-17T17:24:45.162Z,68.14
2023-04-17T17:30:26.927Z,68.04
2023-04-17T17:34:30.568Z,68.98
2023-04-17T17:38:33.416Z,67.46
2023-04-17T17:42:36.446Z,68.35
2023-04-17T17:46:41.535Z,66.40
2023-04-17T17:50:44.879Z,69.56
2023-04-17T17:54:47.958Z,69.73
2023-04-17T17:58:51.205Z,64.97
2023-04-17T18:02:56.350Z,66.52
2023-04-17T18:06:59.398Z,72.57
2023-04-17T18:11:02.635Z,71.31
2023-04-17T18:15:06.347Z,71.17
2023-04-17T18:19:10.526Z,72.73
2023-04-17T18:23:13.806Z,72.15
2023-04-17T18:27:16.966Z,72.61
2023-04-17T18:31:21.892Z,71.14
2023-04-17T18:35:26.230Z,69.11
2023-04-17T18:39:29.293Z,70.50
2023-04-17T18:43:32.611Z,71.40
2023-04-17T18:47:35.551Z,71.44
2023-04-17T18:51:39.942Z,72.41
2023-04-17T18:55:42.912Z,71.26
2023-04-17T18:59:46.703Z,70.63
2023-04-17T19:03:51.446Z,74.24
2023-04-17T19:07:56.376Z,75.55
2023-04-17T19:11:59.500Z,75.53
2023-04-17T19:16:02.671Z,74.42
2023-04-17T19:20:06.826Z,73.55
2023-04-17T19:24:11.324Z,73.09
2023-04-17T19:28:14.534Z,76.73
2023-04-17T19:32:17.945Z,76.64
2023-04-17T19:36:21.078Z,76.13
2023-04-17T19:40:26.254Z,72.85
2023-04-17T19:44:29.815Z,70.34
2023-04-17T19:48:33.013Z,70.66
2023-04-17T19:52:36.130Z,73.92
2023-04-17T21:59:29.663Z,76.18
2023-04-17T22:12:21.006Z,78.27
2023-04-17T22:25:18.946Z,79.03
2023-04-17T22:29:21.806Z,79.09
2023-04-17T22:33:32.122Z,77.43
2023-04-17T22:37:34.763Z,74.52
2023-04-17T22:41:41.161Z,73.95
2023-04-17T22:45:44.587Z,74.94
2023-04-17T23:37:38.400Z,71.46
2023-04-17T23:41:42.839Z,74.95
2023-04-17T23:45:45.542Z,73.46
2023-04-17T23:55:44.496Z,72.35
